createdAt,value
2023-05-23T00:00:00.456Z,81.2
2023-05-23T00:05:00.781Z,84.0
2023-05-23T00:10:01.378Z,112.9
2023-05-23T00:15:00.754Z,156.3
2023-05-23T00:20:00.433Z,138.0
2023-05-23T00:25:00.521Z,89.8
2023-05-23T00:30:00.536Z,72.5
2023-05-23T00:35:00.386Z,135.3
2023-05-23T00:40:00.516Z,92.4
2023-05-23T00:45:00.441Z,4.6
2023-05-23T00:50:00.594Z,331.9
2023-05-23T00:55:00.418Z,337.1
2023-05-23T01:00:00.942Z,359.8
2023-05-23T01:05:00.416Z,26.9
2023-05-23T01:10:00.537Z,22.5
2023-05-23T01:15:00.494Z,22.5
2023-05-23T01:20:00.553Z,22.5
2023-05-23T01:25:00.543Z,22.5
2023-05-23T01:30:00.564Z,22.5
2023-05-23T01:35:00.458Z,4.7
2023-05-23T01:40:00.431Z,29.9
2023-05-23T01:45:00.514Z,26.8
2023-05-23T01:50:00.462Z,46.7
2023-05-23T01:55:00.851Z,38.8
2023-05-23T02:00:00.649Z,37.7
2023-05-23T02:05:00.405Z,45.1
2023-05-23T02:10:00.509Z,55.4
2023-05-23T02:15:00.487Z,45.5
2023-05-23T02:20:00.449Z,358.4
2023-05-23T02:25:00.505Z,26.8
2023-05-23T02:30:00.508Z,31.3
2023-05-23T02:35:00.578Z,15.2
2023-05-23T02:40:00.606Z,25.8
2023-05-23T02:45:00.475Z,28.6
2023-05-23T02:50:00.501Z,280.4
2023-05-23T02:55:00.665Z,59.2
2023-05-23T03:00:00.490Z,39.5
2023-05-23T03:05:00.590Z,36.5
2023-05-23T03:10:00.536Z,28.1
2023-05-23T03:15:00.634Z,44.2
2023-05-23T03:20:00.532Z,28.4
2023-05-23T03:25:00.536Z,32.3
2023-05-23T03:30:00.514Z,35.3
2023-05-23T03:35:00.541Z,40.7
2023-05-23T03:40:00.554Z,357.2
2023-05-23T03:45:00.652Z,29.6
2023-05-23T03:50:00.563Z,47.2
2023-05-23T03:55:00.542Z,31.8
2023-05-23T04:00:00.548Z,36.4
2023-05-23T04:05:00.512Z,34.6
2023-05-23T04:10:00.597Z,30.7
2023-05-23T04:15:00.915Z,31.6
2023-05-23T04:20:00.513Z,23.8
2023-05-23T04:25:00.449Z,25.1
2023-05-23T04:30:00.452Z,20.2
2023-05-23T04:35:00.870Z,6.0
2023-05-23T04:40:00.524Z,24.6
2023-05-23T04:45:00.487Z,23.5
2023-05-23T04:50:00.446Z,34.4
2023-05-23T04:55:01.004Z,30.3
2023-05-23T05:00:00.505Z,40.6
2023-05-23T05:05:00.481Z,28.2
2023-05-23T05:10:01.720Z,40.1
2023-05-23T05:15:00.419Z,22.7
2023-05-23T05:20:00.506Z,22.5
2023-05-23T05:25:00.463Z,251.8
2023-05-23T05:30:00.542Z,259.0
2023-05-23T05:35:00.432Z,294.2
2023-05-23T05:40:00.508Z,19.7
2023-05-23T05:45:00.699Z,9.4
2023-05-23T05:50:00.519Z,334.5
2023-05-23T05:55:00.461Z,348.7
2023-05-23T06:00:00.528Z,357.6
2023-05-23T06:05:00.933Z,29.2
2023-05-23T06:10:04.388Z,0.2
2023-05-23T06:15:00.524Z,333.4
2023-05-23T06:20:00.953Z,340.5
2023-05-23T06:25:00.433Z,324.7
2023-05-23T06:30:00.666Z,267.0
2023-05-23T06:35:00.473Z,248.9
2023-05-23T06:40:00.562Z,232.9
2023-05-23T06:45:00.484Z,244.6
2023-05-23T06:50:00.505Z,267.7
2023-05-23T06:55:00.445Z,273.3
2023-05-23T07:00:00.625Z,279.2
2023-05-23T07:05:00.685Z,296.0
2023-05-23T07:10:00.537Z,287.8
2023-05-23T07:15:00.615Z,322.8
2023-05-23T07:20:00.522Z,319.5
2023-05-23T07:25:00.543Z,312.6
2023-05-23T07:30:00.727Z,270.1
2023-05-23T07:35:00.575Z,294.0
2023-05-23T07:40:00.526Z,311.0
2023-05-23T07:45:00.634Z,280.8
2023-05-23T07:50:00.476Z,261.5
2023-05-23T07:55:00.492Z,300.8
2023-05-23T08:00:00.603Z,331.6
2023-05-23T08:05:00.626Z,310.0
2023-05-23T08:10:00.616Z,297.9
2023-05-23T08:15:00.575Z,299.2
2023-05-23T08:20:00.881Z,273.9
2023-05-23T08:25:00.434Z,303.9
2023-05-23T08:30:00.845Z,271.0
2023-05-23T08:35:00.569Z,287.8
2023-05-23T08:40:00.560Z,276.7
2023-05-23T08:45:00.572Z,273.7
2023-05-23T08:50:00.502Z,299.8
2023-05-23T08:55:00.652Z,283.6
2023-05-23T09:00:00.514Z,271.5
2023-05-23T09:05:00.497Z,305.5
2023-05-23T09:10:01.853Z,295.4
2023-05-23T09:15:00.619Z,287.6
2023-05-23T09:20:00.606Z,222.8
2023-05-23T09:25:00.496Z,252.1
2023-05-23T09:30:00.838Z,267.2
2023-05-23T09:35:00.524Z,248.0
2023-05-23T09:40:00.771Z,241.6
2023-05-23T09:45:05.403Z,201.3
2023-05-23T09:50:00.394Z,295.8
2023-05-23T09:55:00.417Z,247.9
2023-05-23T10:00:01.685Z,267.1
2023-05-23T10:05:00.523Z,293.4
2023-05-23T10:10:00.613Z,278.4
2023-05-23T10:15:00.552Z,253.3
2023-05-23T10:20:00.512Z,271.9
2023-05-23T10:25:00.500Z,270.6
2023-05-23T10:30:00.526Z,242.9
2023-05-23T10:35:00.494Z,252.0
2023-05-23T10:40:00.823Z,260.7
2023-05-23T10:45:01.880Z,235.2
2023-05-23T10:50:00.654Z,256.4
2023-05-23T10:55:00.380Z,272.2
2023-05-23T11:00:00.581Z,249.8
2023-05-23T11:05:00.567Z,237.7
2023-05-23T11:10:00.520Z,254.1
2023-05-23T11:15:00.428Z,245.1
2023-05-23T11:20:00.518Z,241.0
2023-05-23T11:25:00.541Z,272.9
2023-05-23T11:30:00.711Z,260.8
2023-05-23T11:35:00.453Z,215.4
2023-05-23T11:40:00.686Z,234.2
2023-05-23T11:45:00.488Z,254.0
2023-05-23T11:50:00.533Z,262.5
2023-05-23T11:55:04.473Z,266.2
2023-05-23T12:00:00.557Z,287.2
2023-05-23T12:05:00.837Z,258.3
2023-05-23T12:10:00.521Z,212.7
2023-05-23T12:15:01.056Z,222.5
2023-05-23T12:20:02.416Z,244.2
2023-05-23T12:25:00.616Z,247.1
2023-05-23T12:30:00.503Z,237.2
2023-05-23T12:35:00.504Z,228.9
2023-05-23T12:40:00.586Z,231.6
2023-05-23T12:45:00.576Z,248.3
2023-05-23T12:50:00.710Z,240.4
2023-05-23T12:55:00.564Z,234.9
2023-05-23T13:00:00.556Z,240.9
2023-05-23T13:05:00.519Z,235.8
2023-05-23T13:10:00.541Z,257.6
2023-05-23T13:15:00.554Z,261.9
2023-05-23T13:20:00.931Z,260.6
2023-05-23T13:25:00.473Z,277.2
2023-05-23T13:30:01.400Z,255.0
2023-05-23T13:35:00.430Z,239.0
2023-05-23T13:40:00.671Z,225.7
2023-05-23T13:45:00.655Z,273.4
2023-05-23T13:50:00.528Z,271.7
2023-05-23T13:55:00.661Z,275.9
2023-05-23T14:00:00.540Z,270.8
2023-05-23T14:05:00.638Z,261.5
2023-05-23T14:10:00.510Z,247.1
2023-05-23T14:15:00.443Z,250.6
2023-05-23T14:20:00.583Z,242.7
2023-05-23T14:25:00.805Z,280.1
2023-05-23T14:30:00.545Z,267.3
2023-05-23T14:35:00.484Z,273.8
2023-05-23T14:40:00.577Z,278.4
2023-05-23T14:45:00.695Z,270.3
2023-05-23T14:50:00.574Z,273.4
2023-05-23T14:55:00.465Z,277.9
2023-05-23T15:00:00.506Z,289.5
2023-05-23T15:05:00.574Z,272.0
2023-05-23T15:10:00.503Z,282.8
2023-05-23T15:15:00.648Z,269.5
2023-05-23T15:20:00.505Z,279.9
2023-05-23T15:25:00.605Z,292.0
2023-05-23T15:30:00.533Z,293.1
2023-05-23T15:35:00.431Z,285.6
2023-05-23T15:40:00.504Z,274.1
2023-05-23T15:45:00.650Z,288.3
2023-05-23T15:50:00.577Z,295.6
2023-05-23T15:55:00.452Z,290.3
2023-05-23T16:00:01.007Z,302.8
2023-05-23T16:05:00.533Z,314.1
2023-05-23T16:10:00.957Z,299.8
2023-05-23T16:15:00.524Z,306.9
2023-05-23T16:20:00.933Z,302.5
2023-05-23T16:25:00.517Z,305.6
2023-05-23T16:30:00.557Z,315.9
2023-05-23T16:35:00.530Z,307.7
2023-05-23T16:40:01.325Z,304.9
2023-05-23T16:45:00.535Z,308.2
2023-05-23T16:50:00.534Z,300.1
2023-05-23T16:55:00.450Z,319.4
2023-05-23T17:00:00.696Z,290.5
2023-05-23T17:05:00.501Z,302.3
2023-05-23T17:10:00.601Z,310.8
2023-05-23T17:15:00.516Z,315.0
2023-05-23T17:20:00.656Z,314.2
2023-05-23T17:25:00.429Z,311.0
2023-05-23T17:30:00.748Z,313.3
2023-05-23T17:35:00.436Z,306.2
2023-05-23T17:40:01.314Z,298.8
2023-05-23T17:45:00.698Z,316.3
2023-05-23T17:50:00.609Z,306.1
2023-05-23T17:55:00.650Z,308.7
2023-05-23T18:00:00.646Z,324.5
2023-05-23T18:05:00.399Z,312.4
2023-05-23T18:10:00.892Z,329.3
2023-05-23T18:15:00.399Z,316.1
2023-05-23T18:20:00.521Z,330.1
2023-05-23T18:25:00.456Z,308.5
2023-05-23T18:30:00.768Z,300.3
2023-05-23T18:35:00.383Z,302.3
2023-05-23T18:40:00.621Z,296.9
2023-05-23T18:45:00.568Z,300.5
2023-05-23T18:50:00.508Z,300.0
2023-05-23T18:55:00.537Z,297.9
2023-05-23T19:00:00.614Z,279.7
2023-05-23T19:05:00.547Z,271.8
2023-05-23T19:10:00.515Z,290.6
2023-05-23T19:15:00.507Z,308.5
2023-05-23T19:20:00.577Z,262.1
2023-05-23T19:25:00.585Z,273.2
2023-05-23T19:30:00.552Z,283.2
2023-05-23T19:35:00.726Z,242.9
2023-05-23T19:40:00.608Z,222.4
2023-05-23T19:45:00.672Z,255.7
2023-05-23T19:50:00.473Z,255.7
2023-05-23T19:55:04.005Z,265.7
2023-05-23T20:00:00.519Z,267.3
2023-05-23T20:05:00.374Z,268.5
2023-05-23T20:10:00.514Z,249.7
2023-05-23T20:15:00.423Z,266.4
2023-05-23T20:20:00.540Z,246.1
2023-05-23T20:25:00.428Z,234.1
2023-05-23T20:30:00.532Z,258.7
2023-05-23T20:35:00.727Z,269.8
2023-05-23T20:40:00.506Z,244.1
2023-05-23T20:45:00.389Z,231.6
2023-05-23T20:50:00.528Z,252.9
2023-05-23T20:55:00.430Z,250.6
2023-05-23T21:00:00.622Z,264.5
2023-05-23T21:05:00.581Z,265.4
2023-05-23T21:10:00.530Z,261.8
2023-05-23T21:15:00.504Z,257.6
2023-05-23T21:20:00.513Z,255.9
2023-05-23T21:25:00.493Z,270.5
2023-05-23T21:30:00.494Z,271.1
2023-05-23T21:35:00.557Z,267.0
2023-05-23T21:40:00.399Z,256.1
2023-05-23T21:45:00.417Z,267.7
2023-05-23T21:50:00.713Z,260.5
2023-05-23T21:55:00.570Z,281.8
2023-05-23T22:00:01.071Z,276.2
2023-05-23T22:05:00.578Z,266.6
2023-05-23T22:10:00.564Z,256.2
2023-05-23T22:15:00.589Z,230.2
2023-05-23T22:20:00.790Z,248.2
2023-05-23T22:25:00.534Z,265.4
2023-05-23T22:30:00.587Z,270.2
2023-05-23T22:35:00.541Z,261.4
2023-05-23T22:40:00.662Z,271.1
2023-05-23T22:45:00.488Z,274.1
2023-05-23T22:50:00.527Z,243.6
2023-05-23T22:55:00.466Z,249.9
2023-05-23T23:00:00.589Z,269.2
2023-05-23T23:05:00.590Z,265.1
2023-05-23T23:10:00.556Z,273.8
2023-05-23T23:15:00.631Z,270.1
2023-05-23T23:20:00.922Z,255.7
2023-05-23T23:25:00.594Z,224.5
2023-05-23T23:30:00.595Z,257.9
2023-05-23T23:35:00.530Z,257.6
2023-05-23T23:40:00.614Z,252.6
2023-05-23T23:45:00.567Z,267.0
2023-05-23T23:50:00.543Z,271.9
2023-05-23T23:55:00.547Z,280.7
